Time;durP1;ratioP1;P1;durP2;ratioP2;P2;SDS_P1;SDS_P2;PMS_P1;PMS_P2;Temp;Humidity;BMP_temperature;BMP_pressure;BME280_temperature;BME280_humidity;BME280_pressure;Samples;Min_cycle;Max_cycle;Signal;HPM_P1;HPM_P2
2021/06/29 00:01:57;;;;;;;13.85;8.82;;;;;;;17.78;100.00;101166.47;5190150;27;20376;-74
2021/06/29 00:04:59;;;;;;;10.23;7.72;;;;;;;17.84;100.00;101175.53;5128968;27;20476;-78
2021/06/29 00:07:53;;;;;;;12.35;8.70;;;;;;;17.88;100.00;101166.22;5174022;27;20858;-77
2021/06/29 00:10:48;;;;;;;10.48;8.82;;;;;;;17.83;100.00;101165.91;5186053;27;20373;-74
2021/06/29 00:13:50;;;;;;;10.48;8.60;;;;;;;17.83;100.00;101166.72;5117294;27;20532;-73
2021/06/29 00:16:44;;;;;;;10.75;9.02;;;;;;;17.85;100.00;101169.22;5182045;27;20433;-76
2021/06/29 00:19:38;;;;;;;10.60;8.57;;;;;;;17.87;100.00;101170.69;5188011;27;20388;-75
2021/06/29 00:22:35;;;;;;;12.82;8.60;;;;;;;17.87;100.00;101176.00;5101809;27;20551;-76
2021/06/29 00:25:33;;;;;;;9.65;8.40;;;;;;;17.85;100.00;101166.59;5135808;27;20431;-77
2021/06/29 00:28:27;;;;;;;10.52;9.05;;;;;;;17.82;100.00;101158.94;5188088;27;20477;-83
2021/06/29 00:31:21;;;;;;;11.18;9.40;;;;;;;17.74;100.00;101157.22;5177830;27;20521;-78
2021/06/29 00:34:15;;;;;;;11.70;9.35;;;;;;;17.75;100.00;101168.66;5171824;27;20396;-76
2021/06/29 00:37:24;;;;;;;15.43;8.85;;;;;;;17.73;100.00;101179.47;5128460;27;20386;-77
2021/06/29 00:40:18;;;;;;;15.45;8.63;;;;;;;17.69;100.00;101188.78;5173396;27;20393;-77
2021/06/29 00:43:12;;;;;;;15.75;8.68;;;;;;;17.64;100.00;101186.66;5172768;27;20860;-77
2021/06/29 00:46:06;;;;;;;15.38;9.25;;;;;;;17.60;100.00;101188.03;5183215;27;20384;-78
2021/06/29 00:49:16;;;;;;;12.98;9.90;;;;;;;17.56;100.00;101184.13;5146525;27;20396;-76
2021/06/29 00:52:14;;;;;;;10.10;9.10;;;;;;;17.51;100.00;101187.28;5187095;27;20534;-75
2021/06/29 00:55:14;;;;;;;13.95;9.68;;;;;;;17.46;100.00;101187.03;5127549;27;20401;-74
2021/06/29 00:58:09;;;;;;;11.13;9.60;;;;;;;17.49;100.00;101191.97;5165820;27;20763;-75
2021/06/29 01:01:03;;;;;;;13.52;9.25;;;;;;;17.46;100.00;101188.84;5174150;27;20400;-76
2021/06/29 01:03:42;;;;;;;15.30;9.75;;;;;;;17.48;100.00;101182.38;4466865;27;18723448;-76
2021/06/29 01:06:38;;;;;;;11.98;10.73;;;;;;;17.42;100.00;101184.91;5131719;27;20196;-78
2021/06/29 01:09:34;;;;;;;12.27;9.80;;;;;;;17.41;100.00;101170.03;5179741;27;20392;-76
2021/06/29 01:12:28;;;;;;;13.95;9.07;;;;;;;17.37;100.00;101166.91;5180689;27;20400;-77
2021/06/29 01:15:29;;;;;;;14.00;9.57;;;;;;;17.39;100.00;101169.38;5103855;27;20125;-73
2021/06/29 01:18:25;;;;;;;15.95;10.00;;;;;;;17.32;100.00;101163.97;5120189;27;20759;-72
2021/06/29 01:21:21;;;;;;;13.50;10.38;;;;;;;17.35;100.00;101165.41;5177318;27;20863;-74
2021/06/29 01:24:26;;;;;;;12.95;11.05;;;;;;;17.35;100.00;101153.00;5181280;27;20504;-76
2021/06/29 01:33:48;;;;;;;12.85;11.55;;;;;;;17.26;100.00;101154.09;5136923;27;20486;-74
2021/06/29 01:36:42;;;;;;;11.70;10.50;;;;;;;17.20;100.00;101142.38;5181893;27;20512;-75
2021/06/29 01:39:36;;;;;;;11.77;10.57;;;;;;;17.23;100.00;101147.31;5186620;27;20542;-75
2021/06/29 01:42:31;;;;;;;12.98;10.30;;;;;;;17.20;100.00;101139.72;5189901;27;20372;-75
2021/06/29 01:45:30;;;;;;;13.63;11.18;;;;;;;17.17;100.00;101145.38;5133015;27;20551;-78
2021/06/29 01:48:24;;;;;;;13.50;11.40;;;;;;;17.20;100.00;101138.91;5095929;27;20391;-75
2021/06/29 01:51:19;;;;;;;15.35;10.50;;;;;;;17.18;100.00;101132.94;5189604;27;20388;-76
2021/06/29 01:54:13;;;;;;;14.27;10.50;;;;;;;17.21;100.00;101137.91;5143781;27;20887;-75
2021/06/29 01:57:17;;;;;;;12.73;11.05;;;;;;;17.17;100.00;101131.31;5116659;27;20404;-77
2021/06/29 02:00:24;;;;;;;16.17;13.25;;;;;;;17.15;100.00;101133.31;5189728;27;20462;-77
2021/06/29 02:03:17;;;;;;;15.30;13.35;;;;;;;17.13;100.00;101136.16;5188969;27;21056;-77
2021/06/29 02:06:10;;;;;;;15.18;13.35;;;;;;;17.12;100.00;101130.03;5115212;27;20881;-78
2021/06/29 02:09:00;;;;;;;15.85;13.35;;;;;;;17.07;100.00;101132.38;5114846;27;20408;-77
2021/06/29 02:12:10;;;;;;;16.02;12.60;;;;;;;17.08;100.00;101120.81;5125780;27;20139;-75
2021/06/29 02:15:09;;;;;;;18.15;12.38;;;;;;;17.05;100.00;101115.84;5142335;27;20441;-78
2021/06/29 02:18:04;;;;;;;17.42;13.63;;;;;;;17.04;100.00;101116.03;5172197;27;20913;-77
2021/06/29 02:20:58;;;;;;;17.58;14.00;;;;;;;17.03;100.00;101119.69;5191564;27;20983;-78
2021/06/29 02:23:53;;;;;;;16.83;14.07;;;;;;;17.02;100.00;101104.78;5189078;27;20390;-75
2021/06/29 02:26:49;;;;;;;22.92;14.65;;;;;;;16.99;100.00;101105.97;5118828;27;20398;-75
2021/06/29 02:29:57;;;;;;;14.18;11.95;;;;;;;16.99;100.00;101111.28;5141831;27;20427;-75
2021/06/29 02:32:51;;;;;;;15.52;11.93;;;;;;;17.02;100.00;101118.03;5192489;27;20409;-76
2021/06/29 02:35:44;;;;;;;13.88;10.93;;;;;;;16.98;100.00;101104.31;5117657;27;20912;-77
2021/06/29 02:38:52;;;;;;;16.55;11.32;;;;;;;16.96;100.00;101098.38;5086022;28;20474;-78
2021/06/29 02:41:46;;;;;;;19.50;11.15;;;;;;;16.93;100.00;101101.38;5184384;27;20413;-77
2021/06/29 02:44:42;;;;;;;13.98;10.93;;;;;;;16.88;100.00;101096.63;5191572;27;20404;-78
2021/06/29 02:47:38;;;;;;;21.20;10.98;;;;;;;16.86;100.00;101093.34;5187151;27;20384;-78
2021/06/29 02:50:38;;;;;;;13.75;10.73;;;;;;;16.83;100.00;101091.03;5153171;27;20887;-78
2021/06/29 02:53:33;;;;;;;12.98;9.90;;;;;;;16.87;100.00;101094.16;5192366;27;20417;-78
2021/06/29 02:56:42;;;;;;;14.30;10.88;;;;;;;16.85;100.00;101094.31;5187139;27;20378;-78
2021/06/29 02:59:35;;;;;;;15.02;10.43;;;;;;;16.82;100.00;101089.41;5191614;27;20534;-79
2021/06/29 03:02:32;;;;;;;13.73;10.43;;;;;;;16.74;100.00;101092.06;5114108;27;20400;-77
2021/06/29 03:05:26;;;;;;;12.80;10.63;;;;;;;16.71;100.00;101090.63;5192158;27;20515;-78
2021/06/29 03:08:20;;;;;;;17.02;11.05;;;;;;;16.71;100.00;101089.81;5172527;27;20385;-78
2021/06/29 03:11:14;;;;;;;13.00;11.68;;;;;;;16.73;100.00;101085.16;5191966;27;20376;-79
2021/06/29 03:14:08;;;;;;;12.75;11.27;;;;;;;16.74;100.00;101084.13;5183472;27;20434;-78
2021/06/29 03:17:03;;;;;;;14.35;11.10;;;;;;;16.78;100.00;101089.91;5183843;27;20902;-77
2021/06/29 03:19:53;;;;;;;14.38;11.57;;;;;;;16.84;100.00;101094.50;5120759;27;20401;-78
2021/06/29 03:22:48;;;;;;;17.10;11.38;;;;;;;16.95;100.00;101099.38;5146001;27;20138;-77
2021/06/29 03:25:38;;;;;;;17.55;11.68;;;;;;;17.07;100.00;101110.38;5111468;27;20885;-77
2021/06/29 03:28:34;;;;;;;16.70;12.38;;;;;;;17.15;100.00;101112.94;5124887;27;20135;-78
2021/06/29 03:31:23;;;;;;;14.95;12.88;;;;;;;17.30;100.00;101112.94;5120764;27;20759;-77
2021/06/29 03:34:22;;;;;;;17.50;13.55;;;;;;;17.50;100.00;101124.66;5144988;27;20399;-79
2021/06/29 03:37:16;;;;;;;17.88;13.02;;;;;;;17.62;100.00;101132.97;5182803;27;20374;-77
2021/06/29 03:40:18;;;;;;;18.75;12.30;;;;;;;17.67;100.00;101133.25;5128896;27;20898;-78
2021/06/29 03:43:17;;;;;;;18.90;12.52;;;;;;;17.62;100.00;101132.97;5148871;27;20491;-76
2021/06/29 03:46:11;;;;;;;14.40;10.95;;;;;;;17.59;100.00;101137.81;5189802;27;20380;-77
2021/06/29 03:49:05;;;;;;;20.10;12.40;;;;;;;17.61;100.00;101144.63;5176524;27;20480;-78
2021/06/29 03:52:00;;;;;;;17.15;12.32;;;;;;;17.65;100.00;101153.00;5106399;27;20309;-74
2021/06/29 03:54:50;;;;;;;21.15;13.52;;;;;;;17.71;100.00;101153.09;5100689;27;20137;-76
2021/06/29 03:57:57;;;;;;;19.23;15.25;;;;;;;17.81;100.00;101149.34;5131348;27;20767;-75
2021/06/29 04:00:58;;;;;;;20.20;15.55;;;;;;;17.90;100.00;101145.63;5113407;27;20535;-76
2021/06/29 04:03:55;;;;;;;21.73;15.43;;;;;;;17.90;100.00;101141.13;5191871;27;20380;-75
2021/06/29 04:06:49;;;;;;;17.85;15.10;;;;;;;17.93;100.00;101145.25;5182733;27;20405;-76
2021/06/29 04:09:43;;;;;;;17.65;15.38;;;;;;;18.02;100.00;101144.13;5180695;27;20394;-78
2021/06/29 04:12:38;;;;;;;19.08;14.70;;;;;;;18.03;100.00;101147.63;5192149;27;20376;-78
2021/06/29 04:15:32;;;;;;;17.95;14.45;;;;;;;18.03;100.00;101153.75;5183976;27;20394;-78
2021/06/29 04:18:26;;;;;;;23.85;15.25;;;;;;;18.04;100.00;101154.56;5171735;27;20544;-77
2021/06/29 04:21:32;;;;;;;26.15;13.40;;;;;;;18.07;100.00;101149.72;5133950;27;20402;-76
2021/06/29 04:24:26;;;;;;;17.48;13.80;;;;;;;18.15;100.00;101156.75;5181483;27;20528;-76
2021/06/29 04:27:22;;;;;;;21.58;14.55;;;;;;;18.19;100.00;101155.34;5180952;27;20382;-75
2021/06/29 04:30:16;;;;;;;15.48;12.65;;;;;;;18.26;100.00;101150.94;5178770;27;20390;-76
2021/06/29 04:33:10;;;;;;;16.02;13.45;;;;;;;18.32;100.00;101145.91;5189970;27;20395;-76
2021/06/29 04:36:04;;;;;;;15.85;12.77;;;;;;;18.32;100.00;101136.09;5191253;27;20387;-78
2021/06/29 04:38:58;;;;;;;14.18;12.77;;;;;;;18.38;100.00;101130.03;5119308;27;20509;-76
2021/06/29 04:41:51;;;;;;;14.20;11.88;;;;;;;18.37;100.00;101136.38;5190526;27;20380;-77
2021/06/29 04:45:00;;;;;;;13.05;11.70;;;;;;;18.42;100.00;101126.00;5144980;27;20529;-78
2021/06/29 04:47:55;;;;;;;12.48;11.15;;;;;;;18.49;100.00;101131.38;5173515;27;20393;-78
2021/06/29 04:50:50;;;;;;;18.77;12.55;;;;;;;18.62;100.00;101133.34;5193188;27;20895;-79
2021/06/29 04:53:44;;;;;;;15.27;12.27;;;;;;;18.74;100.00;101146.94;5190337;27;20533;-77
2021/06/29 04:56:38;;;;;;;12.98;11.27;;;;;;;18.81;99.33;101161.94;5183371;27;20406;-76
2021/06/29 04:59:31;;;;;;;14.45;10.80;;;;;;;18.85;99.24;101149.09;5108415;27;20419;-78
2021/06/29 05:02:25;;;;;;;12.23;11.10;;;;;;;18.93;98.93;101142.84;5187327;27;20396;-77
2021/06/29 05:05:21;;;;;;;14.73;10.98;;;;;;;18.91;98.71;101144.84;5146221;27;20175;-76
2021/06/29 05:08:20;;;;;;;12.68;9.73;;;;;;;18.94;98.40;101141.84;5138102;27;20453;-76
2021/06/29 05:11:14;;;;;;;11.27;10.02;;;;;;;18.98;99.19;101133.25;5186771;27;20502;-75
2021/06/29 05:14:08;;;;;;;13.07;10.63;;;;;;;18.95;100.00;101132.81;5187594;27;20515;-77
2021/06/29 05:17:02;;;;;;;13.95;10.50;;;;;;;18.96;100.00;101129.97;5180729;27;20385;-76
2021/06/29 05:19:56;;;;;;;13.20;10.93;;;;;;;18.96;100.00;101134.47;5191588;27;20746;-74
2021/06/29 05:22:51;;;;;;;11.00;9.77;;;;;;;19.01;100.00;101130.22;5191528;27;20400;-77
2021/06/29 05:25:59;;;;;;;11.13;9.68;;;;;;;19.06;100.00;101140.28;5146140;27;20911;-76
2021/06/29 05:28:54;;;;;;;11.18;10.00;;;;;;;19.14;99.07;101139.34;5191331;27;20416;-78
2021/06/29 05:31:59;;;;;;;10.93;9.35;;;;;;;19.23;98.07;101140.81;5148433;27;20426;-76
2021/06/29 05:34:53;;;;;;;11.55;9.27;;;;;;;19.33;97.18;101140.50;5192194;27;20389;-74
2021/06/29 05:37:44;;;;;;;11.13;9.40;;;;;;;19.39;96.03;101145.03;5097696;27;20910;-78
2021/06/29 05:40:39;;;;;;;14.20;9.40;;;;;;;19.50;95.51;101154.31;5139402;27;21004;-77
2021/06/29 05:43:33;;;;;;;10.15;9.07;;;;;;;19.64;94.36;101159.47;5191478;27;20388;-77
2021/06/29 05:46:27;;;;;;;10.00;8.63;;;;;;;19.78;93.32;101162.28;5187061;27;20382;-75
2021/06/29 05:49:29;;;;;;;12.35;8.30;;;;;;;20.03;91.53;101163.38;5128356;27;20423;-77
2021/06/29 05:52:25;;;;;;;11.02;7.30;;;;;;;20.19;91.46;101153.41;5111839;27;20408;-76
2021/06/29 05:55:27;;;;;;;14.68;7.72;;;;;;;20.34;90.69;101161.25;5117026;27;20413;-76
2021/06/29 05:58:21;;;;;;;9.00;7.47;;;;;;;20.30;93.76;101152.81;5169902;27;20386;-76
2021/06/29 06:01:23;;;;;;;7.13;6.07;;;;;;;20.24;94.97;101156.28;5129538;27;20392;-78
2021/06/29 06:04:17;;;;;;;9.75;6.90;;;;;;;20.18;96.75;101157.09;5188779;27;20986;-78
2021/06/29 06:07:12;;;;;;;11.95;6.68;;;;;;;20.20;93.64;101160.38;5180301;27;20397;-77
2021/06/29 06:10:07;;;;;;;8.05;6.80;;;;;;;20.17;97.59;101158.13;5189441;27;20408;-78
2021/06/29 06:13:02;;;;;;;7.10;6.50;;;;;;;20.20;95.98;101160.38;5190600;27;20510;-77
2021/06/29 06:15:56;;;;;;;7.10;6.40;;;;;;;20.23;97.04;101154.66;5183333;27;20412;-79
2021/06/29 06:18:50;;;;;;;7.47;6.38;;;;;;;20.28;96.64;101159.38;5190158;27;20895;-76
2021/06/29 06:21:44;;;;;;;7.53;5.75;;;;;;;20.40;93.83;101166.59;5103154;27;20156;-76
2021/06/29 06:24:39;;;;;;;6.63;5.60;;;;;;;20.56;93.16;101157.41;5152233;27;20199;-80
2021/06/29 06:27:33;;;;;;;6.85;5.50;;;;;;;20.68;94.98;101148.81;5176105;27;20393;-79
2021/06/29 06:30:28;;;;;;;6.05;5.45;;;;;;;20.78;96.20;101146.59;5143103;27;20330;-78
2021/06/29 06:33:22;;;;;;;8.63;5.13;;;;;;;20.92;93.93;101142.91;5190671;27;20376;-77
2021/06/29 06:36:12;;;;;;;7.05;5.20;;;;;;;21.05;89.32;101138.59;5120333;27;20406;-75
2021/06/29 06:39:05;;;;;;;6.50;5.03;;;;;;;21.24;88.27;101136.94;5185734;27;20504;-76
2021/06/29 06:41:59;;;;;;;6.05;4.95;;;;;;;21.33;87.12;101141.84;5190897;27;20434;-75
2021/06/29 06:45:07;;;;;;;5.60;4.75;;;;;;;21.36;86.70;101144.09;5135126;27;20500;-78
2021/06/29 06:48:00;;;;;;;6.70;4.70;;;;;;;21.30;91.97;101154.78;5173298;27;20382;-77
2021/06/29 06:50:54;;;;;;;5.47;4.93;;;;;;;21.24;94.37;101143.09;5181100;27;20374;-76
2021/06/29 06:53:57;;;;;;;6.30;4.20;;;;;;;21.27;93.06;101148.00;5128803;27;20419;-77
2021/06/29 06:56:52;;;;;;;5.40;4.53;;;;;;;21.29;92.84;101143.28;5184577;27;20415;-78
2021/06/29 06:59:46;;;;;;;7.53;4.45;;;;;;;21.45;88.57;101152.72;5191306;27;20404;-77
2021/06/29 07:02:41;;;;;;;5.45;4.95;;;;;;;21.63;85.92;101144.06;5189760;27;20535;-78
2021/06/29 07:05:35;;;;;;;5.00;4.28;;;;;;;21.77;90.64;101153.69;5190519;27;20376;-78
2021/06/29 07:08:25;;;;;;;5.03;4.40;;;;;;;22.00;84.32;101152.34;5099241;27;20379;-77
2021/06/29 07:11:19;;;;;;;6.10;4.40;;;;;;;22.31;83.78;101151.59;5191309;27;20372;-76
2021/06/29 07:14:12;;;;;;;5.07;3.95;;;;;;;22.69;80.46;101148.06;5112550;27;20474;-79
2021/06/29 07:17:02;;;;;;;6.32;4.25;;;;;;;22.88;80.00;101140.09;5127426;27;20380;-80
2021/06/29 07:19:59;;;;;;;7.65;4.97;;;;;;;23.21;77.20;101139.03;5102891;27;20351;-77
2021/06/29 07:22:37;;;;;;;4.85;4.35;;;;;;;23.59;79.21;101141.50;5101176;27;20335;-77
2021/06/29 07:25:13;;;;;;;4.75;4.20;;;;;;;24.07;74.50;101139.91;5160802;27;20371;-78
2021/06/29 07:27:49;;;;;;;7.85;3.85;;;;;;;24.33;72.96;101146.75;5070347;28;20137;-82
2021/06/29 07:30:26;;;;;;;7.40;4.00;;;;;;;24.51;71.19;101156.63;5067002;28;20126;-80
2021/06/29 07:33:06;;;;;;;6.00;4.03;;;;;;;24.68;71.98;101167.53;5108414;27;20151;-80
2021/06/29 07:35:43;;;;;;;6.13;4.13;;;;;;;24.82;71.55;101152.03;5062779;28;20369;-79
2021/06/29 07:38:21;;;;;;;4.63;3.90;;;;;;;24.81;70.18;101159.28;5089251;27;20359;-80
2021/06/29 07:40:57;;;;;;;5.00;3.83;;;;;;;24.73;70.38;101151.53;5063722;28;20123;-79
2021/06/29 07:43:34;;;;;;;7.38;4.28;;;;;;;24.66;71.42;101150.84;5066896;28;20130;-80
2021/06/29 07:46:10;;;;;;;7.03;3.97;;;;;;;24.46;74.75;101151.94;5100826;27;20148;-78
2021/06/29 07:48:47;;;;;;;6.32;4.25;;;;;;;24.33;71.99;101146.75;5069542;28;20134;-79
2021/06/29 07:51:27;;;;;;;8.05;4.50;;;;;;;24.41;73.43;101138.41;5091641;27;20378;-82
2021/06/29 07:54:04;;;;;;;4.55;3.78;;;;;;;24.52;74.79;101136.00;5078701;27;20131;-79
2021/06/29 07:56:40;;;;;;;4.43;4.03;;;;;;;24.49;76.68;101148.00;5087544;27;20618;-80
2021/06/29 07:59:17;;;;;;;5.60;4.05;;;;;;;24.33;76.95;101136.03;5068135;28;20145;-82
2021/06/29 08:01:53;;;;;;;9.90;4.18;;;;;;;24.20;81.40;101134.34;5067301;28;20130;-79
2021/06/29 08:04:30;;;;;;;7.43;3.70;;;;;;;24.17;80.39;101134.03;5127918;27;20132;-79
2021/06/29 08:07:06;;;;;;;4.78;4.15;;;;;;;24.09;81.13;101135.97;5105827;27;20139;-77
2021/06/29 08:09:44;;;;;;;7.07;4.95;;;;;;;24.08;75.17;101139.69;5082439;27;20134;-79
2021/06/29 08:12:22;;;;;;;5.70;4.80;;;;;;;24.02;75.63;101132.56;5110902;27;20723;-84
2021/06/29 08:14:58;;;;;;;5.80;4.70;;;;;;;24.15;75.28;101144.97;5110545;27;20369;-83
2021/06/29 08:17:36;;;;;;;7.35;4.70;;;;;;;24.15;76.39;101144.97;5111194;27;20379;-83
2021/06/29 08:20:56;;;;;;;4.40;4.00;;;;;;;24.21;80.79;101140.56;5162639;27;20382;-76
2021/06/29 08:23:34;;;;;;;4.07;3.78;;;;;;;24.19;80.03;101137.28;5108367;27;20375;-79
2021/06/29 08:26:10;;;;;;;4.90;4.32;;;;;;;24.24;81.71;101140.91;5108030;27;20605;-79
2021/06/29 08:28:46;;;;;;;5.00;4.43;;;;;;;24.06;85.64;101147.13;5100260;27;20161;-79
2021/06/29 08:31:24;;;;;;;5.60;4.25;;;;;;;24.05;82.49;101142.84;5067664;28;20134;-79
2021/06/29 08:34:01;;;;;;;6.40;5.07;;;;;;;23.78;85.32;101144.97;5116496;27;20373;-82
2021/06/29 08:36:41;;;;;;;6.97;5.07;;;;;;;23.59;85.67;101146.03;5126517;27;20124;-80
2021/06/29 08:39:17;;;;;;;6.28;4.70;;;;;;;23.36;84.54;101139.47;5067995;28;20378;-79
2021/06/29 08:41:55;;;;;;;4.90;4.45;;;;;;;23.21;87.44;101145.19;5056326;28;20131;-77
2021/06/29 08:44:31;;;;;;;5.78;5.20;;;;;;;23.06;88.71;101152.75;5142030;27;20136;-79
2021/06/29 08:47:08;;;;;;;5.80;5.30;;;;;;;22.87;89.91;101144.63;5111604;27;20590;-84
2021/06/29 08:49:45;;;;;;;8.80;5.32;;;;;;;22.76;88.00;101142.66;5108068;27;20365;-80
2021/06/29 08:52:22;;;;;;;5.30;4.65;;;;;;;22.68;87.98;101149.09;5045207;27;20142;-79
2021/06/29 08:54:59;;;;;;;5.13;4.63;;;;;;;22.68;87.71;101135.72;5124057;27;20132;-76
2021/06/29 08:57:36;;;;;;;5.60;5.10;;;;;;;22.68;88.83;101137.59;5068353;28;20570;-78
2021/06/29 09:00:13;;;;;;;5.40;4.88;;;;;;;22.69;89.59;101133.88;5129889;27;20138;-79
2021/06/29 09:02:49;;;;;;;6.18;4.95;;;;;;;22.62;89.53;101128.59;5129885;27;1186576;-82
2021/06/29 09:05:27;;;;;;;6.13;5.50;;;;;;;22.67;89.38;101141.28;5087630;28;20748;-77
2021/06/29 09:08:18;;;;;;;7.18;5.45;;;;;;;22.78;88.80;101137.09;5063870;27;20401;-76
2021/06/29 09:11:17;;;;;;;6.25;4.95;;;;;;;22.79;88.49;101146.75;5108410;27;20754;-79
2021/06/29 09:14:09;;;;;;;6.22;5.57;;;;;;;22.80;88.00;101151.06;5081344;28;21240;-77
2021/06/29 09:16:47;;;;;;;8.57;6.07;;;;;;;22.94;87.97;101149.91;5088430;27;20367;-78
2021/06/29 09:19:37;;;;;;;11.82;6.25;;;;;;;23.26;80.39;101144.50;5088470;28;20370;-78
2021/06/29 09:22:30;;;;;;;7.17;5.57;;;;;;;23.54;80.73;101148.56;5119209;27;1190419;-83
2021/06/29 09:25:28;;;;;;;8.60;5.97;;;;;;;23.82;76.86;101140.03;5062485;28;20726;-77
2021/06/29 09:28:05;;;;;;;5.70;5.20;;;;;;;23.95;76.61;101145.22;5109755;27;20427;-77
2021/06/29 09:30:54;;;;;;;7.22;5.60;;;;;;;24.08;76.27;101144.22;5111808;27;20382;-80
2021/06/29 09:33:39;;;;;;;7.80;5.53;;;;;;;24.12;75.24;101145.41;5118012;27;1189073;-82
2021/06/29 09:36:21;;;;;;;6.53;5.05;;;;;;;24.25;75.80;101150.59;5106613;27;20343;-83
2021/06/29 09:38:59;;;;;;;8.45;5.70;;;;;;;24.29;74.78;101143.72;5072965;28;20744;-80
2021/06/29 09:41:36;;;;;;;7.28;6.05;;;;;;;24.31;74.48;101156.09;5108164;27;20369;-77
2021/06/29 09:44:18;;;;;;;7.82;5.63;;;;;;;24.16;73.25;101154.63;5071642;28;20376;-83
2021/06/29 09:46:55;;;;;;;6.72;6.00;;;;;;;24.01;72.04;101154.22;5107345;27;20368;-79
2021/06/29 09:49:33;;;;;;;5.18;4.70;;;;;;;23.90;76.79;101153.09;5087697;27;20140;-76
2021/06/29 09:52:10;;;;;;;7.72;5.78;;;;;;;23.70;75.37;101156.00;5120636;27;1179950;-84
2021/06/29 09:54:47;;;;;;;6.38;5.40;;;;;;;23.58;76.94;101155.09;5082792;27;20717;-78
2021/06/29 09:57:25;;;;;;;8.85;6.38;;;;;;;23.35;79.45;101155.75;5102834;27;20051;-78
2021/06/29 10:00:01;;;;;;;6.32;5.65;;;;;;;23.29;78.03;101157.47;5107944;27;20734;-79
2021/06/29 10:02:40;;;;;;;7.82;5.20;;;;;;;23.07;80.12;101152.50;5148453;27;20504;-79
2021/06/29 10:05:24;;;;;;;7.13;5.15;;;;;;;22.89;83.90;101163.97;5123453;27;20389;-85
2021/06/29 10:08:05;;;;;;;8.40;5.90;;;;;;;22.66;83.74;101164.53;5066077;28;20774;-79
2021/06/29 10:10:42;;;;;;;8.45;5.60;;;;;;;22.58;86.01;101172.00;5066650;28;20380;-78
2021/06/29 10:13:18;;;;;;;13.55;5.93;;;;;;;22.50;88.21;101163.19;5128678;27;20056;-78
2021/06/29 10:15:55;;;;;;;7.95;6.10;;;;;;;22.32;90.60;101165.75;5088552;27;20136;-76
2021/06/29 10:18:35;;;;;;;11.55;6.18;;;;;;;22.14;92.00;101156.59;5096131;27;20140;-79
2021/06/29 10:21:17;;;;;;;10.73;6.68;;;;;;;22.08;93.62;101148.63;5106121;27;20388;-75
2021/06/29 10:23:55;;;;;;;6.95;6.25;;;;;;;22.03;92.96;101151.09;5108154;27;20861;-80
2021/06/29 10:26:35;;;;;;;10.52;6.65;;;;;;;22.05;90.49;101152.53;5108714;27;20742;-79
2021/06/29 10:29:13;;;;;;;7.65;6.38;;;;;;;22.10;90.43;101150.03;5068264;28;20374;-80
2021/06/29 10:31:56;;;;;;;11.23;6.43;;;;;;;22.12;93.39;101141.81;5065213;28;20891;-82
2021/06/29 10:34:36;;;;;;;8.10;7.18;;;;;;;22.09;90.12;101134.22;5108343;27;20750;-80
2021/06/29 10:37:11;;;;;;;7.93;6.73;;;;;;;22.03;92.11;101127.88;5100322;27;1195671;-84
2021/06/29 10:39:47;;;;;;;11.52;7.50;;;;;;;22.12;93.17;101131.13;5069897;27;20406;-82
2021/06/29 10:42:24;;;;;;;10.73;6.50;;;;;;;22.11;90.32;101122.31;5131291;27;20124;-84
2021/06/29 10:45:13;;;;;;;10.85;7.03;;;;;;;22.13;90.58;101127.41;5112093;27;20128;-81
2021/06/29 10:47:49;;;;;;;8.38;7.55;;;;;;;22.16;91.19;101116.31;5092385;27;20913;-80
2021/06/29 10:50:34;;;;;;;10.18;7.72;;;;;;;22.18;92.57;101124.91;5110806;27;20372;-84
2021/06/29 10:53:33;;;;;;;9.85;8.18;;;;;;;22.11;90.33;101121.47;5068880;27;20908;-82
2021/06/29 10:56:20;;;;;;;8.48;7.38;;;;;;;22.05;90.37;101114.31;5064199;28;20376;-78
2021/06/29 10:58:56;;;;;;;12.15;7.90;;;;;;;22.07;91.26;101106.91;5107431;27;20377;-78
2021/06/29 11:01:34;;;;;;;10.13;7.35;;;;;;;22.08;90.57;101114.72;5129068;27;20132;-78
2021/06/29 11:04:11;;;;;;;9.07;7.80;;;;;;;22.03;91.71;101106.50;5107336;27;20904;-79
2021/06/29 11:06:47;;;;;;;9.45;8.40;;;;;;;22.03;90.79;101109.19;5104630;27;20136;-77
2021/06/29 11:09:54;;;;;;;10.15;7.35;;;;;;;21.98;90.55;101109.00;5125229;27;20135;-81
2021/06/29 11:12:34;;;;;;;9.93;8.10;;;;;;;22.01;91.56;101103.22;5107809;27;20040;-78
2021/06/29 11:15:11;;;;;;;13.38;7.97;;;;;;;22.08;90.84;101089.84;5113746;27;20375;-78
2021/06/29 11:17:47;;;;;;;10.38;7.07;;;;;;;22.29;90.98;101089.53;5073608;27;20143;-79
2021/06/29 11:20:26;;;;;;;8.85;6.80;;;;;;;22.52;87.64;101098.84;5104044;27;20609;-79
2021/06/29 11:23:10;;;;;;;9.48;6.18;;;;;;;22.90;86.42;101090.69;5143443;27;20376;-80
2021/06/29 11:25:54;;;;;;;8.55;6.78;;;;;;;23.26;84.78;101086.47;5107943;27;20369;-77
2021/06/29 11:28:34;;;;;;;8.13;7.10;;;;;;;23.42;85.92;101093.09;5107823;27;20369;-78
2021/06/29 11:31:11;;;;;;;10.93;7.05;;;;;;;23.58;86.18;101088.16;5057411;28;20385;-78
2021/06/29 11:33:56;;;;;;;9.07;6.13;;;;;;;23.55;85.01;101096.66;5160513;27;20394;-79
2021/06/29 11:36:33;;;;;;;8.35;6.28;;;;;;;23.46;83.47;101096.94;5103816;27;20384;-78
2021/06/29 11:39:17;;;;;;;7.68;6.32;;;;;;;23.35;82.67;101094.19;5106975;27;20754;-78
2021/06/29 11:42:20;;;;;;;6.30;5.70;;;;;;;23.22;81.53;101101.31;5067459;28;20368;-78
2021/06/29 11:45:03;;;;;;;7.93;5.60;;;;;;;23.09;87.20;101104.97;5067112;28;20398;-79
2021/06/29 11:47:41;;;;;;;9.85;6.43;;;;;;;23.01;91.17;101099.84;5107691;27;20357;-80
2021/06/29 11:50:19;;;;;;;7.68;5.60;;;;;;;22.93;90.38;101098.28;5047605;28;20143;-77
2021/06/29 11:52:59;;;;;;;6.22;5.60;;;;;;;23.02;87.34;101098.84;5108349;27;20365;-79
2021/06/29 11:55:38;;;;;;;5.97;5.47;;;;;;;23.04;88.41;101088.75;5094781;27;20386;-76
2021/06/29 11:58:15;;;;;;;6.00;4.22;;;;;;;22.98;85.23;101084.25;5087631;27;20382;-79
2021/06/29 12:00:51;;;;;;;6.68;4.15;;;;;;;23.28;81.09;101083.56;5107470;27;20129;-77
2021/06/29 12:03:28;;;;;;;5.00;4.25;;;;;;;23.37;85.94;101082.22;5085898;28;20511;-77
2021/06/29 12:06:05;;;;;;;4.85;4.28;;;;;;;23.66;85.13;101077.16;5106855;27;20133;-78
2021/06/29 12:08:41;;;;;;;6.20;4.85;;;;;;;23.65;85.43;101075.53;5168735;27;20138;-77
2021/06/29 12:11:18;;;;;;;4.75;4.35;;;;;;;23.69;83.83;101072.16;5086136;27;20132;-77
2021/06/29 12:13:54;;;;;;;4.78;4.38;;;;;;;23.90;84.61;101078.09;5065630;28;20123;-76
2021/06/29 12:16:32;;;;;;;5.45;4.75;;;;;;;23.91;81.37;101079.75;5081657;27;20134;-76
2021/06/29 12:19:10;;;;;;;4.55;4.10;;;;;;;24.12;82.72;101072.25;5066590;28;20372;-78
2021/06/29 12:21:49;;;;;;;4.28;3.88;;;;;;;24.34;81.64;101072.53;5107214;27;20136;-78
2021/06/29 12:24:26;;;;;;;4.18;3.78;;;;;;;24.58;75.98;101068.03;5106383;27;20381;-79
2021/06/29 12:27:16;;;;;;;4.50;4.03;;;;;;;24.80;72.81;101062.94;5107004;27;20132;-79
2021/06/29 12:29:53;;;;;;;5.05;4.57;;;;;;;24.80;77.62;101052.19;5073791;27;20375;-78
2021/06/29 12:32:30;;;;;;;4.18;3.40;;;;;;;24.84;70.65;101062.22;5106730;27;20141;-79
2021/06/29 12:35:10;;;;;;;4.88;3.60;;;;;;;24.70;70.36;101055.47;5119366;27;20129;-80
2021/06/29 12:38:04;;;;;;;5.18;3.45;;;;;;;24.60;70.18;101053.38;5107655;27;20381;-78
2021/06/29 12:40:44;;;;;;;3.85;2.97;;;;;;;24.37;70.53;101056.78;5087397;28;20390;-79
2021/06/29 12:43:34;;;;;;;3.97;3.17;;;;;;;24.14;76.21;101046.84;5108456;27;20384;-78
2021/06/29 12:46:19;;;;;;;3.85;3.55;;;;;;;23.85;77.09;101049.31;5087528;27;20752;-77
2021/06/29 12:49:02;;;;;;;5.60;3.60;;;;;;;23.52;81.23;101050.53;5087676;27;20385;-78
2021/06/29 12:51:45;;;;;;;3.85;3.55;;;;;;;23.29;78.94;101050.41;5067087;28;20376;-78
2021/06/29 12:54:23;;;;;;;4.43;4.03;;;;;;;22.98;85.56;101052.16;5066399;28;20372;-76
2021/06/29 12:57:07;;;;;;;4.00;3.58;;;;;;;22.67;88.35;101045.03;5108990;27;20365;-79
2021/06/29 12:59:45;;;;;;;4.32;3.80;;;;;;;22.45;88.73;101040.09;5066645;28;20376;-79